createdAt,value
2023-02-12T00:00:23.456Z,8.37
2023-02-12T00:01:23.430Z,8.37
2023-02-12T00:02:23.504Z,8.39
2023-02-12T00:03:23.440Z,8.32
2023-02-12T00:04:23.394Z,8.31
2023-02-12T00:05:23.381Z,8.37
2023-02-12T00:06:23.365Z,8.34
2023-02-12T00:07:23.384Z,8.35
2023-02-12T00:08:23.346Z,8.29
2023-02-12T00:09:23.357Z,8.38
2023-02-12T00:10:23.329Z,8.32
2023-02-12T00:11:23.340Z,8.35
2023-02-12T00:12:23.308Z,8.24
2023-02-12T00:13:23.291Z,8.37
2023-02-12T00:14:23.307Z,8.28
2023-02-12T00:15:23.276Z,8.23
2023-02-12T00:16:23.294Z,8.31
2023-02-12T00:17:23.253Z,8.26
2023-02-12T00:18:23.254Z,8.35
2023-02-12T00:19:23.273Z,8.35
2023-02-12T00:20:23.219Z,8.31
2023-02-12T00:21:23.216Z,8.32
2023-02-12T00:22:23.194Z,8.29
2023-02-12T00:23:23.218Z,8.29
2023-02-12T00:24:23.202Z,8.24
2023-02-12T00:25:23.206Z,8.24
2023-02-12T00:26:23.157Z,8.34
2023-02-12T00:27:23.162Z,8.31
2023-02-12T00:28:23.175Z,8.28
2023-02-12T00:29:23.142Z,8.26
2023-02-12T00:30:23.168Z,8.29
2023-02-12T00:31:23.295Z,8.32
2023-02-12T00:32:23.103Z,8.32
2023-02-12T00:33:23.078Z,8.29
2023-02-12T00:34:23.083Z,8.32
2023-02-12T00:35:23.061Z,8.23
2023-02-12T00:36:23.078Z,8.29
2023-02-12T00:37:23.036Z,8.32
2023-02-12T00:38:23.020Z,8.29
2023-02-12T00:39:23.038Z,8.28
2023-02-12T00:40:23.008Z,8.28
2023-02-12T00:41:22.997Z,8.24
2023-02-12T00:42:22.985Z,8.31
2023-02-12T00:43:22.979Z,8.20
2023-02-12T00:44:22.991Z,8.35
2023-02-12T00:45:22.944Z,8.35
2023-02-12T00:46:23.066Z,8.23
2023-02-12T00:47:22.925Z,8.31
2023-02-12T00:48:22.927Z,8.26
2023-02-12T00:49:22.919Z,8.24
2023-02-12T00:50:22.881Z,8.29
2023-02-12T00:51:22.884Z,8.29
2023-02-12T00:52:22.877Z,8.26
2023-02-12T00:53:22.863Z,8.26
2023-02-12T00:54:22.867Z,8.24
2023-02-12T00:55:22.841Z,8.23
2023-02-12T00:56:22.828Z,8.31
2023-02-12T00:57:22.846Z,8.24
2023-02-12T00:58:22.800Z,8.26
2023-02-12T00:59:22.792Z,8.31
2023-02-12T01:00:22.778Z,8.24
2023-02-12T01:01:22.799Z,8.23
2023-02-12T01:02:22.777Z,8.24
2023-02-12T01:03:22.745Z,8.20
2023-02-12T01:04:22.751Z,8.23
2023-02-12T01:05:22.911Z,8.20
2023-02-12T01:06:22.740Z,8.23
2023-02-12T01:07:22.708Z,8.26
2023-02-12T01:08:22.694Z,8.24
2023-02-12T01:09:22.690Z,8.23
2023-02-12T01:10:22.666Z,8.19
2023-02-12T01:11:22.689Z,8.14
2023-02-12T01:12:22.647Z,8.21
2023-02-12T01:13:22.635Z,8.28
2023-02-12T01:14:22.625Z,8.20
2023-02-12T01:15:22.644Z,8.26
2023-02-12T01:16:22.754Z,8.24
2023-02-12T01:17:22.601Z,8.21
2023-02-12T01:18:22.602Z,8.16
2023-02-12T01:19:22.569Z,8.23
2023-02-12T01:20:22.580Z,8.17
2023-02-12T01:21:22.549Z,8.19
2023-02-12T01:22:22.540Z,8.21
2023-02-12T01:23:22.551Z,8.19
2023-02-12T01:24:22.515Z,8.24
2023-02-12T01:25:22.510Z,8.20
2023-02-12T01:26:22.494Z,8.19
2023-02-12T01:27:22.486Z,8.26
2023-02-12T01:28:22.537Z,8.10
2023-02-12T01:29:22.469Z,8.16
2023-02-12T01:30:22.472Z,8.23
2023-02-12T01:31:22.586Z,8.10
2023-02-12T01:32:22.430Z,8.21
2023-02-12T01:33:22.431Z,8.16
2023-02-12T01:34:22.462Z,8.14
2023-02-12T01:35:22.427Z,8.20
2023-02-12T01:36:22.415Z,8.20
2023-02-12T01:37:22.372Z,8.10
2023-02-12T01:38:22.380Z,8.16
2023-02-12T01:39:22.378Z,8.20
2023-02-12T01:40:22.366Z,8.10
2023-02-12T01:41:22.332Z,8.14
2023-02-12T01:42:22.319Z,8.13
2023-02-12T01:43:22.311Z,8.10
2023-02-12T01:44:22.307Z,8.16
2023-02-12T01:45:22.311Z,8.10
2023-02-12T01:46:22.298Z,8.20
2023-02-12T01:47:22.266Z,8.10
2023-02-12T01:48:22.261Z,8.12
2023-02-12T01:49:22.243Z,8.10
2023-02-12T01:50:22.260Z,8.13
2023-02-12T01:51:22.220Z,8.06
2023-02-12T01:52:22.234Z,8.19
2023-02-12T01:53:22.201Z,8.13
2023-02-12T01:54:22.186Z,8.12
2023-02-12T01:55:22.184Z,8.10
2023-02-12T01:56:22.185Z,8.13
2023-02-12T01:57:22.156Z,8.10
2023-02-12T01:58:22.147Z,8.13
2023-02-12T01:59:22.210Z,8.09
2023-02-12T02:00:22.124Z,8.17
2023-02-12T02:01:22.155Z,8.13
2023-02-12T02:02:22.102Z,8.09
2023-02-12T02:03:22.262Z,8.10
2023-02-12T02:04:22.083Z,8.12
2023-02-12T02:05:22.076Z,8.12
2023-02-12T02:06:22.099Z,8.12
2023-02-12T02:07:22.049Z,8.12
2023-02-12T02:08:22.063Z,8.06
2023-02-12T02:09:22.041Z,8.10
2023-02-12T02:10:22.016Z,8.13
2023-02-12T02:11:22.037Z,8.12
2023-02-12T02:12:21.991Z,8.13
2023-02-12T02:13:21.995Z,8.09
2023-02-12T02:14:21.967Z,8.04
2023-02-12T02:15:21.960Z,8.09
2023-02-12T02:16:22.036Z,8.06
2023-02-12T02:17:21.934Z,8.10
2023-02-12T02:18:21.958Z,8.02
2023-02-12T02:19:21.916Z,8.05
2023-02-12T02:20:21.901Z,8.04
2023-02-12T02:21:21.924Z,8.09
2023-02-12T02:22:21.889Z,8.10
2023-02-12T02:23:21.875Z,8.06
2023-02-12T02:24:21.934Z,8.12
2023-02-12T02:25:21.852Z,8.12
2023-02-12T02:26:21.851Z,8.05
2023-02-12T02:27:21.829Z,8.04
2023-02-12T02:28:21.880Z,7.96
2023-02-12T02:29:21.832Z,8.06
2023-02-12T02:30:21.791Z,8.05
2023-02-12T02:31:21.924Z,8.04
2023-02-12T02:32:21.766Z,7.99
2023-02-12T02:33:21.759Z,8.05
2023-02-12T02:34:21.784Z,8.02
2023-02-12T02:35:21.743Z,7.98
2023-02-12T02:36:23.598Z,8.04
2023-02-12T02:37:21.719Z,7.99
2023-02-12T02:38:21.711Z,8.02
2023-02-12T02:39:21.736Z,7.99
2023-02-12T02:40:21.743Z,8.05
2023-02-12T02:41:21.672Z,8.02
2023-02-12T02:42:21.657Z,7.98
2023-02-12T02:43:21.653Z,7.95
2023-02-12T02:44:21.677Z,8.02
2023-02-12T02:45:21.633Z,7.98
2023-02-12T02:46:21.697Z,8.02
2023-02-12T02:47:21.612Z,7.96
2023-02-12T02:48:21.601Z,7.96
2023-02-12T02:49:21.583Z,7.99
2023-02-12T02:50:21.604Z,8.01
2023-02-12T02:51:21.594Z,8.02
2023-02-12T02:52:21.559Z,7.99
2023-02-12T02:53:21.542Z,7.95
2023-02-12T02:54:21.529Z,7.98
2023-02-12T02:55:21.523Z,8.01
2023-02-12T02:56:21.600Z,8.05
2023-02-12T02:57:21.503Z,7.98
2023-02-12T02:58:21.485Z,8.05
2023-02-12T02:59:21.476Z,8.04
2023-02-12T03:00:21.468Z,7.94
2023-02-12T03:01:21.567Z,7.98
2023-02-12T03:02:21.441Z,7.98
2023-02-12T03:03:21.509Z,7.94
2023-02-12T03:04:21.443Z,8.01
2023-02-12T03:05:21.412Z,7.99
2023-02-12T03:06:21.398Z,8.01
2023-02-12T03:07:21.388Z,8.05
2023-02-12T03:08:21.379Z,8.05
2023-02-12T03:09:21.394Z,7.96
2023-02-12T03:10:21.353Z,7.99
2023-02-12T03:11:21.346Z,7.95
2023-02-12T03:12:21.356Z,7.96
2023-02-12T03:13:21.327Z,7.99
2023-02-12T03:14:21.360Z,7.95
2023-02-12T03:15:21.300Z,7.95
2023-02-12T03:16:21.299Z,8.01
2023-02-12T03:17:21.282Z,7.96
2023-02-12T03:18:21.290Z,7.92
2023-02-12T03:19:21.288Z,7.94
2023-02-12T03:20:21.247Z,7.96
2023-02-12T03:21:22.219Z,7.95
2023-02-12T03:22:21.239Z,7.94
2023-02-12T03:23:21.222Z,7.95
2023-02-12T03:24:21.236Z,7.96
2023-02-12T03:25:21.197Z,7.92
2023-02-12T03:26:21.186Z,7.96
2023-02-12T03:27:21.209Z,7.91
2023-02-12T03:28:21.236Z,7.95
2023-02-12T03:29:21.170Z,7.96
2023-02-12T03:30:21.141Z,7.98
2023-02-12T03:31:21.154Z,7.96
2023-02-12T03:32:21.122Z,7.98
2023-02-12T03:33:21.143Z,8.02
2023-02-12T03:34:21.095Z,7.88
2023-02-12T03:35:21.090Z,8.02
2023-02-12T03:36:21.075Z,8.01
2023-02-12T03:37:21.091Z,7.92
2023-02-12T03:38:21.079Z,7.92
2023-02-12T03:39:21.038Z,7.99
2023-02-12T03:40:21.038Z,8.01
2023-02-12T03:41:21.018Z,7.92
2023-02-12T03:42:21.037Z,7.95
2023-02-12T03:43:21.004Z,7.96
2023-02-12T03:44:21.012Z,7.96
2023-02-12T03:45:20.980Z,7.99
2023-02-12T03:46:21.081Z,7.98
2023-02-12T03:47:20.986Z,7.99
2023-02-12T03:48:20.946Z,7.95
2023-02-12T03:49:20.931Z,7.98
2023-02-12T03:50:20.931Z,7.91
2023-02-12T03:51:20.921Z,7.99
2023-02-12T03:52:20.926Z,7.91
2023-02-12T03:53:20.931Z,7.98
2023-02-12T03:54:20.883Z,8.01
2023-02-12T03:55:20.870Z,7.99
2023-02-12T03:56:20.860Z,7.99
2023-02-12T03:57:20.855Z,7.98
2023-02-12T03:58:20.849Z,7.96
2023-02-12T03:59:20.881Z,8.02
2023-02-12T04:00:20.852Z,7.98
2023-02-12T04:01:20.957Z,7.99
2023-02-12T04:02:20.904Z,7.94
2023-02-12T04:03:20.779Z,7.91
2023-02-12T04:04:20.803Z,7.91
2023-02-12T04:05:20.762Z,8.02
2023-02-12T04:06:20.746Z,7.99
2023-02-12T04:07:20.763Z,7.95
2023-02-12T04:08:20.715Z,7.99
2023-02-12T04:09:20.734Z,7.95
2023-02-12T04:10:20.706Z,7.91
2023-02-12T04:11:20.685Z,7.91
2023-02-12T04:12:20.681Z,7.98
2023-02-12T04:13:20.662Z,7.92
2023-02-12T04:14:20.687Z,7.98
2023-02-12T04:15:20.640Z,7.91
2023-02-12T04:16:20.681Z,7.87
2023-02-12T04:17:20.641Z,7.95
2023-02-12T04:18:20.616Z,7.95
2023-02-12T04:19:20.601Z,7.86
2023-02-12T04:20:20.592Z,7.83
2023-02-12T04:21:20.575Z,7.94
2023-02-12T04:22:20.592Z,8.04
2023-02-12T04:23:20.550Z,7.95
2023-02-12T04:24:20.543Z,7.94
2023-02-12T04:25:20.533Z,7.91
2023-02-12T04:26:20.525Z,7.87
2023-02-12T04:27:20.539Z,7.98
2023-02-12T04:28:20.591Z,7.86
2023-02-12T04:29:20.505Z,7.88
2023-02-12T04:30:20.478Z,7.94
2023-02-12T04:31:20.630Z,7.91
2023-02-12T04:32:20.487Z,7.91
2023-02-12T04:33:20.475Z,7.84
2023-02-12T04:34:20.443Z,8.02
2023-02-12T04:35:20.442Z,7.94
2023-02-12T04:36:20.436Z,7.94
2023-02-12T04:37:20.407Z,7.91
2023-02-12T04:38:20.426Z,7.92
2023-02-12T04:39:20.406Z,7.87
2023-02-12T04:40:20.374Z,7.92
2023-02-12T04:41:20.356Z,7.95
2023-02-12T04:42:20.356Z,7.92
2023-02-12T04:43:20.368Z,7.92
2023-02-12T04:44:20.360Z,7.92
2023-02-12T04:45:20.315Z,7.91
2023-02-12T04:46:20.403Z,7.91
2023-02-12T04:47:20.303Z,7.88
2023-02-12T04:48:20.332Z,7.91
2023-02-12T04:49:20.293Z,7.88
2023-02-12T04:50:20.268Z,7.87
2023-02-12T04:51:20.286Z,7.91
2023-02-12T04:52:20.246Z,7.86
2023-02-12T04:53:20.233Z,7.84
2023-02-12T04:54:20.221Z,7.84
2023-02-12T04:55:20.214Z,7.91
2023-02-12T04:56:20.224Z,7.92
2023-02-12T04:57:20.195Z,7.91
2023-02-12T04:58:20.202Z,7.84
2023-02-12T04:59:20.172Z,7.94
2023-02-12T05:00:20.162Z,7.84
2023-02-12T05:01:20.229Z,7.91
2023-02-12T05:02:20.158Z,7.91
2023-02-12T05:03:20.146Z,7.87
2023-02-12T05:04:20.135Z,7.86
2023-02-12T05:05:20.197Z,7.98
2023-02-12T05:06:20.088Z,7.92
2023-02-12T05:07:20.095Z,7.88
2023-02-12T05:08:20.094Z,7.86
2023-02-12T05:09:20.083Z,7.86
2023-02-12T05:10:20.046Z,7.87
2023-02-12T05:11:20.042Z,7.91
2023-02-12T05:12:20.056Z,7.88
2023-02-12T05:13:20.039Z,7.88
2023-02-12T05:14:20.001Z,7.88
2023-02-12T05:15:20.013Z,7.86
2023-02-12T05:16:20.039Z,7.86
2023-02-12T05:17:19.971Z,7.91
2023-02-12T05:18:19.985Z,7.86
2023-02-12T05:19:19.944Z,7.94
2023-02-12T05:20:19.996Z,7.92
2023-02-12T05:21:19.923Z,7.86
2023-02-12T05:22:19.912Z,7.92
2023-02-12T05:23:19.937Z,7.91
2023-02-12T05:24:19.892Z,7.81
2023-02-12T05:25:19.924Z,7.91
2023-02-12T05:26:19.874Z,7.88
2023-02-12T05:27:19.861Z,7.92
2023-02-12T05:28:19.940Z,7.77
2023-02-12T05:29:19.833Z,7.88
2023-02-12T05:30:19.829Z,7.92
2023-02-12T05:31:21.521Z,7.92
2023-02-12T05:32:19.870Z,7.92
2023-02-12T05:33:19.789Z,7.86
2023-02-12T05:34:19.809Z,7.91
2023-02-12T05:35:19.766Z,7.86
2023-02-12T05:36:19.792Z,7.91
2023-02-12T05:37:19.772Z,7.94
2023-02-12T05:38:19.757Z,7.84
2023-02-12T05:39:19.724Z,7.84
2023-02-12T05:40:19.721Z,7.88
2023-02-12T05:41:19.714Z,7.88
2023-02-12T05:42:19.720Z,7.88
2023-02-12T05:43:19.676Z,7.87
2023-02-12T05:44:19.670Z,7.86
2023-02-12T05:45:19.658Z,7.88
2023-02-12T05:46:19.737Z,7.91
2023-02-12T05:47:19.659Z,7.88
2023-02-12T05:48:19.632Z,7.91
2023-02-12T05:49:19.612Z,7.87
2023-02-12T05:50:19.602Z,7.94
2023-02-12T05:51:19.593Z,7.78
2023-02-12T05:52:19.636Z,7.91
2023-02-12T05:53:19.569Z,7.91
2023-02-12T05:54:19.564Z,7.88
2023-02-12T05:55:19.554Z,7.94
2023-02-12T05:56:19.550Z,7.94
2023-02-12T05:57:19.547Z,7.87
2023-02-12T05:58:19.519Z,7.86
2023-02-12T05:59:19.509Z,7.91
2023-02-12T06:00:19.525Z,7.92
2023-02-12T06:01:19.482Z,7.91
2023-02-12T06:02:19.496Z,7.92
2023-02-12T06:03:19.459Z,7.92
2023-02-12T06:04:19.523Z,7.86
2023-02-12T06:05:19.463Z,7.88
2023-02-12T06:06:19.435Z,7.74
2023-02-12T06:07:19.438Z,7.88
2023-02-12T06:08:19.433Z,7.94
2023-02-12T06:09:19.387Z,7.86
2023-02-12T06:10:19.384Z,7.77
2023-02-12T06:11:19.391Z,7.87
2023-02-12T06:12:19.391Z,7.84
2023-02-12T06:13:19.348Z,7.78
2023-02-12T06:14:19.356Z,7.91
2023-02-12T06:15:19.327Z,7.94
2023-02-12T06:16:19.431Z,7.92
2023-02-12T06:17:19.327Z,7.78
2023-02-12T06:18:19.300Z,7.86
2023-02-12T06:19:19.322Z,7.88
2023-02-12T06:20:19.308Z,7.88
2023-02-12T06:21:19.264Z,7.87
2023-02-12T06:22:19.283Z,7.78
2023-02-12T06:23:19.235Z,7.87
2023-02-12T06:24:19.251Z,7.88
2023-02-12T06:25:19.240Z,7.88
2023-02-12T06:26:19.215Z,7.84
2023-02-12T06:27:19.192Z,7.87
2023-02-12T06:28:19.203Z,7.77
2023-02-12T06:29:19.179Z,7.88
2023-02-12T06:30:19.189Z,7.77
2023-02-12T06:31:19.286Z,7.87
2023-02-12T06:32:19.244Z,7.81
2023-02-12T06:33:19.133Z,7.91
2023-02-12T06:34:19.132Z,7.87
2023-02-12T06:35:19.142Z,7.88
2023-02-12T06:36:19.108Z,7.81
2023-02-12T06:37:19.109Z,7.88
2023-02-12T06:38:19.083Z,7.76
2023-02-12T06:39:19.078Z,7.87
2023-02-12T06:40:19.079Z,7.76
2023-02-12T06:41:19.081Z,7.92
2023-02-12T06:42:19.063Z,7.84
2023-02-12T06:43:19.024Z,7.78
2023-02-12T06:44:19.015Z,7.80
2023-02-12T06:45:19.001Z,7.92
2023-02-12T06:46:19.044Z,7.87
2023-02-12T06:47:19.008Z,7.87
2023-02-12T06:48:18.972Z,7.78
2023-02-12T06:49:18.959Z,7.73
2023-02-12T06:50:18.955Z,7.92
2023-02-12T06:51:18.936Z,7.94
2023-02-12T06:52:18.928Z,7.84
2023-02-12T06:53:18.945Z,7.78
2023-02-12T06:54:18.919Z,7.88
2023-02-12T06:55:18.930Z,7.87
2023-02-12T06:56:18.914Z,7.88
2023-02-12T06:57:18.873Z,7.81
2023-02-12T06:58:18.887Z,7.87
2023-02-12T06:59:18.849Z,7.81
2023-02-12T07:00:18.841Z,7.74
2023-02-12T07:01:18.837Z,7.77
2023-02-12T07:02:18.819Z,7.86
2023-02-12T07:03:18.835Z,7.78
2023-02-12T07:04:18.882Z,7.91
2023-02-12T07:05:18.790Z,7.78
2023-02-12T07:06:18.816Z,7.84
2023-02-12T07:07:18.768Z,7.92
2023-02-12T07:08:18.753Z,7.76
2023-02-12T07:09:18.737Z,7.83
2023-02-12T07:10:18.753Z,7.91
2023-02-12T07:11:18.729Z,7.81
2023-02-12T07:12:18.756Z,7.78
2023-02-12T07:13:18.722Z,7.88
2023-02-12T07:14:18.699Z,7.78
2023-02-12T07:15:18.677Z,7.91
2023-02-12T07:16:18.701Z,7.78
2023-02-12T07:17:18.672Z,7.71
2023-02-12T07:18:18.649Z,7.78
2023-02-12T07:19:18.632Z,7.78
2023-02-12T07:20:18.626Z,7.80
2023-02-12T07:21:18.611Z,7.83
2023-02-12T07:22:18.623Z,7.76
2023-02-12T07:23:18.610Z,7.77
2023-02-12T07:24:18.582Z,7.92
2023-02-12T07:25:18.568Z,7.77
2023-02-12T07:26:18.580Z,7.87
2023-02-12T07:27:18.588Z,7.88
2023-02-12T07:28:18.592Z,7.95
2023-02-12T07:29:18.573Z,7.87
2023-02-12T07:30:18.511Z,7.91
2023-02-12T07:31:18.651Z,7.83
2023-02-12T07:32:18.492Z,7.87
2023-02-12T07:33:18.475Z,7.87
2023-02-12T07:34:18.489Z,7.86
2023-02-12T07:35:18.461Z,7.86
2023-02-12T07:36:18.471Z,7.88
2023-02-12T07:37:18.461Z,7.84
2023-02-12T07:38:18.427Z,7.86
2023-02-12T07:39:18.443Z,7.87
2023-02-12T07:40:18.404Z,7.91
2023-02-12T07:41:18.392Z,7.91
2023-02-12T07:42:18.389Z,7.88
2023-02-12T07:43:18.369Z,7.86
2023-02-12T07:44:18.411Z,7.92
2023-02-12T07:45:18.348Z,7.94
2023-02-12T07:46:18.468Z,7.88
2023-02-12T07:47:18.360Z,7.92
2023-02-12T07:48:18.319Z,7.87
2023-02-12T07:49:18.351Z,7.88
2023-02-12T07:50:18.312Z,7.87
2023-02-12T07:51:18.283Z,8.01
2023-02-12T07:52:18.330Z,7.87
2023-02-12T07:53:18.266Z,7.88
2023-02-12T07:54:18.269Z,7.92
2023-02-12T07:55:18.243Z,7.88
2023-02-12T07:56:18.246Z,7.87
2023-02-12T07:57:18.217Z,7.87
2023-02-12T07:58:18.238Z,7.87
2023-02-12T07:59:18.222Z,7.92
2023-02-12T08:00:18.211Z,7.86
2023-02-12T08:01:18.177Z,7.88
2023-02-12T08:02:18.224Z,7.86
2023-02-12T08:03:18.177Z,7.81
2023-02-12T08:04:18.210Z,7.83
2023-02-12T08:05:18.143Z,7.88
2023-02-12T08:06:18.118Z,7.99
2023-02-12T08:07:18.110Z,7.95
2023-02-12T08:08:18.109Z,7.88
2023-02-12T08:09:18.115Z,7.95
2023-02-12T08:10:18.078Z,8.02
2023-02-12T08:11:18.077Z,7.87
2023-02-12T08:12:18.060Z,7.99
2023-02-12T08:13:18.048Z,7.94
2023-02-12T08:14:18.061Z,7.92
2023-02-12T08:15:18.026Z,7.96
2023-02-12T08:16:18.137Z,8.02
2023-02-12T08:17:18.011Z,8.05
2023-02-12T08:18:17.991Z,7.96
2023-02-12T08:19:22.569Z,7.96
2023-02-12T08:20:18.968Z,7.96
2023-02-12T08:21:17.960Z,8.02
2023-02-12T08:22:17.947Z,7.99
2023-02-12T08:23:17.931Z,8.09
2023-02-12T08:24:17.955Z,7.99
2023-02-12T08:25:17.916Z,8.02
2023-02-12T08:26:17.913Z,8.02
2023-02-12T08:27:17.897Z,8.02
2023-02-12T08:28:17.911Z,7.96
2023-02-12T08:29:17.904Z,7.96
2023-02-12T08:30:17.858Z,8.05
2023-02-12T08:31:17.998Z,8.02
2023-02-12T08:32:17.963Z,8.05
2023-02-12T08:33:17.827Z,8.10
2023-02-12T08:34:17.844Z,8.02
2023-02-12T08:35:17.806Z,8.10
2023-02-12T08:36:17.800Z,8.10
2023-02-12T08:37:17.801Z,8.13
2023-02-12T08:38:17.804Z,8.10
2023-02-12T08:39:17.779Z,8.14
2023-02-12T08:40:17.768Z,8.10
2023-02-12T08:41:19.861Z,8.17
2023-02-12T08:42:17.744Z,8.10
2023-02-12T08:43:17.729Z,8.12
2023-02-12T08:44:17.757Z,8.17
2023-02-12T08:45:17.720Z,8.13
2023-02-12T08:46:17.795Z,8.13
2023-02-12T08:47:17.672Z,8.10
2023-02-12T08:48:17.678Z,8.10
2023-02-12T08:49:17.662Z,8.09
2023-02-12T08:50:17.635Z,8.13
2023-02-12T08:51:17.648Z,8.10
2023-02-12T08:52:17.614Z,8.19
2023-02-12T08:53:17.609Z,8.13
2023-02-12T08:54:17.614Z,8.23
2023-02-12T08:55:17.586Z,8.20
2023-02-12T08:56:17.591Z,8.17
2023-02-12T08:57:17.556Z,8.23
2023-02-12T08:58:17.539Z,8.19
2023-02-12T08:59:17.584Z,8.24
2023-02-12T09:00:17.529Z,8.19
2023-02-12T09:01:17.639Z,8.19
2023-02-12T09:02:17.581Z,8.24
2023-02-12T09:03:17.495Z,8.26
2023-02-12T09:04:17.505Z,8.26
2023-02-12T09:05:17.478Z,8.34
2023-02-12T09:06:17.515Z,8.26
2023-02-12T09:07:17.477Z,8.34
2023-02-12T09:08:17.430Z,8.31
2023-02-12T09:09:17.447Z,8.32
2023-02-12T09:10:17.416Z,8.41
2023-02-12T09:11:17.402Z,8.26
2023-02-12T09:12:17.406Z,8.34
2023-02-12T09:13:17.382Z,8.29
2023-02-12T09:14:17.381Z,8.35
2023-02-12T09:15:17.352Z,8.29
2023-02-12T09:16:17.415Z,8.34
2023-02-12T09:17:17.360Z,8.31
2023-02-12T09:18:17.324Z,8.38
2023-02-12T09:19:17.315Z,8.32
2023-02-12T09:20:17.329Z,8.29
2023-02-12T09:21:17.313Z,8.39
2023-02-12T09:22:17.279Z,8.39
2023-02-12T09:23:17.273Z,8.41
2023-02-12T09:24:17.254Z,8.34
2023-02-12T09:25:17.251Z,8.37
2023-02-12T09:26:17.258Z,8.42
2023-02-12T09:27:17.226Z,8.41
2023-02-12T09:28:17.298Z,8.41
2023-02-12T09:29:17.236Z,8.47
2023-02-12T09:30:17.242Z,8.49
2023-02-12T09:31:17.298Z,8.41
2023-02-12T09:32:17.182Z,8.46
2023-02-12T09:33:17.160Z,8.41
2023-02-12T09:34:17.150Z,8.41
2023-02-12T09:35:17.174Z,8.49
2023-02-12T09:36:17.149Z,8.57
2023-02-12T09:37:17.117Z,8.50
2023-02-12T09:38:17.098Z,8.49
2023-02-12T09:39:17.115Z,8.52
2023-02-12T09:40:17.099Z,8.55
2023-02-12T09:41:17.095Z,8.57
2023-02-12T09:42:17.058Z,8.55
2023-02-12T09:43:17.048Z,8.59
2023-02-12T09:44:17.044Z,8.59
2023-02-12T09:45:17.028Z,8.60
2023-02-12T09:46:17.126Z,8.60
2023-02-12T09:47:17.005Z,8.59
2023-02-12T09:48:16.999Z,8.57
2023-02-12T09:49:17.010Z,8.60
2023-02-12T09:50:16.980Z,8.59
2023-02-12T09:51:16.968Z,8.63
2023-02-12T09:52:16.972Z,8.57
2023-02-12T09:53:16.944Z,8.67
2023-02-12T09:54:16.950Z,8.72
2023-02-12T09:55:16.923Z,8.68
2023-02-12T09:56:16.935Z,8.72
2023-02-12T09:57:16.910Z,8.71
2023-02-12T09:58:16.889Z,8.71
2023-02-12T09:59:16.908Z,8.67
2023-02-12T10:00:16.870Z,8.77
2023-02-12T10:01:16.904Z,8.72
2023-02-12T10:02:16.852Z,8.80
2023-02-12T10:03:16.838Z,8.85
2023-02-12T10:04:16.915Z,8.81
2023-02-12T10:05:16.835Z,8.83
2023-02-12T10:06:16.833Z,8.81
2023-02-12T10:07:16.793Z,8.81
2023-02-12T10:08:16.812Z,8.88
2023-02-12T10:09:16.773Z,8.81
2023-02-12T10:10:16.784Z,8.83
2023-02-12T10:11:16.749Z,8.89
2023-02-12T10:12:16.771Z,8.80
2023-02-12T10:13:16.734Z,8.92
2023-02-12T10:14:16.728Z,8.96
2023-02-12T10:15:16.712Z,8.81
2023-02-12T10:16:16.736Z,8.88
2023-02-12T10:17:16.713Z,8.92
2023-02-12T10:18:16.674Z,8.90
2023-02-12T10:19:16.671Z,8.89
2023-02-12T10:20:16.655Z,8.98
2023-02-12T10:21:16.649Z,8.98
2023-02-12T10:22:16.658Z,8.98
2023-02-12T10:23:16.636Z,8.98
2023-02-12T10:24:16.653Z,9.03
2023-02-12T10:25:16.623Z,9.03
2023-02-12T10:26:16.596Z,9.11
2023-02-12T10:27:16.624Z,9.08
2023-02-12T10:28:16.630Z,9.12
2023-02-12T10:29:16.564Z,9.03
2023-02-12T10:30:16.546Z,9.08
2023-02-12T10:31:16.701Z,9.14
2023-02-12T10:32:16.549Z,9.12
2023-02-12T10:33:16.512Z,9.11
2023-02-12T10:34:16.507Z,9.11
2023-02-12T10:35:16.525Z,9.06
2023-02-12T10:36:16.472Z,9.12
2023-02-12T10:37:16.504Z,9.09
2023-02-12T10:38:16.472Z,9.11
2023-02-12T10:39:16.446Z,9.09
2023-02-12T10:40:16.453Z,9.18
2023-02-12T10:41:16.422Z,9.24
2023-02-12T10:42:16.411Z,9.19
2023-02-12T10:43:16.425Z,9.16
2023-02-12T10:44:16.386Z,9.18
2023-02-12T10:45:16.378Z,9.22
2023-02-12T10:46:16.463Z,9.26
2023-02-12T10:47:16.364Z,9.23
2023-02-12T10:48:16.631Z,9.15
2023-02-12T10:49:16.333Z,9.19
2023-02-12T10:50:16.322Z,9.23
2023-02-12T10:51:16.349Z,9.19
2023-02-12T10:52:16.305Z,9.19
2023-02-12T10:53:16.292Z,9.30
2023-02-12T10:54:16.444Z,9.30
2023-02-12T10:55:16.280Z,9.34
2023-02-12T10:56:16.280Z,9.30
2023-02-12T10:57:16.326Z,9.32
2023-02-12T10:58:16.235Z,9.29
2023-02-12T10:59:16.226Z,9.30
2023-02-12T11:00:16.210Z,9.36
2023-02-12T11:01:16.229Z,9.26
2023-02-12T11:02:16.185Z,9.36
2023-02-12T11:03:16.177Z,9.37
2023-02-12T11:04:16.171Z,9.30
2023-02-12T11:05:16.185Z,9.34
2023-02-12T11:06:16.168Z,9.30
2023-02-12T11:07:16.160Z,9.37
2023-02-12T11:08:16.124Z,9.32
2023-02-12T11:09:16.113Z,9.29
2023-02-12T11:10:16.096Z,9.29
2023-02-12T11:11:16.096Z,9.40
2023-02-12T11:12:16.131Z,9.34
2023-02-12T11:13:16.072Z,9.33
2023-02-12T11:14:16.071Z,9.33
2023-02-12T11:15:16.052Z,9.33
2023-02-12T11:16:16.064Z,9.40
2023-02-12T11:17:16.052Z,9.37
2023-02-12T11:18:16.014Z,9.29
2023-02-12T11:19:16.014Z,9.33
2023-02-12T11:20:15.993Z,9.37
2023-02-12T11:21:15.987Z,9.41
2023-02-12T11:22:15.999Z,9.32
2023-02-12T11:23:15.966Z,9.41
2023-02-12T11:24:15.943Z,9.40
2023-02-12T11:25:15.940Z,9.33
2023-02-12T11:26:15.951Z,9.40
2023-02-12T11:27:15.947Z,9.36
2023-02-12T11:28:16.072Z,9.42
2023-02-12T11:29:16.001Z,9.37
2023-02-12T11:30:15.896Z,9.40
2023-02-12T11:31:15.987Z,9.37
2023-02-12T11:32:15.921Z,9.40
2023-02-12T11:33:15.848Z,9.41
2023-02-12T11:34:15.963Z,9.45
2023-02-12T11:35:15.829Z,9.40
2023-02-12T11:36:15.818Z,9.36
2023-02-12T11:37:15.811Z,9.50
2023-02-12T11:38:15.818Z,9.47
2023-02-12T11:39:15.800Z,9.45
2023-02-12T11:40:15.782Z,9.45
2023-02-12T11:41:15.764Z,9.51
2023-02-12T11:42:15.754Z,9.41
2023-02-12T11:43:15.764Z,9.50
2023-02-12T11:44:15.757Z,9.36
2023-02-12T11:45:15.724Z,9.47
2023-02-12T11:46:15.741Z,9.50
2023-02-12T11:47:15.695Z,9.50
2023-02-12T11:48:15.712Z,9.45
2023-02-12T11:49:15.678Z,9.50
2023-02-12T11:50:15.668Z,9.47
2023-02-12T11:51:15.664Z,9.41
2023-02-12T11:52:15.642Z,9.41
2023-02-12T11:53:15.664Z,9.50
2023-02-12T11:54:15.620Z,9.54
2023-02-12T11:55:15.612Z,9.44
2023-02-12T11:56:15.600Z,9.48
2023-02-12T11:57:15.587Z,9.44
2023-02-12T11:58:15.599Z,9.48
2023-02-12T11:59:15.580Z,9.55
2023-02-12T12:00:15.578Z,9.54
2023-02-12T12:01:16.600Z,9.55
2023-02-12T12:02:15.631Z,9.54
2023-02-12T12:03:15.656Z,9.55
2023-02-12T12:04:15.512Z,9.57
2023-02-12T12:05:15.507Z,9.52
2023-02-12T12:06:15.486Z,9.59
2023-02-12T12:07:15.502Z,9.62
2023-02-12T12:08:16.762Z,9.59
2023-02-12T12:09:15.451Z,9.57
2023-02-12T12:10:15.449Z,9.60
2023-02-12T12:11:15.428Z,9.54
2023-02-12T12:12:15.438Z,9.60
2023-02-12T12:13:15.407Z,9.52
2023-02-12T12:14:15.400Z,9.57
2023-02-12T12:15:15.415Z,9.63
2023-02-12T12:16:15.430Z,9.60
2023-02-12T12:17:15.366Z,9.62
2023-02-12T12:18:15.397Z,9.62
2023-02-12T12:19:15.351Z,9.62
2023-02-12T12:20:15.334Z,9.62
2023-02-12T12:21:15.325Z,9.63
2023-02-12T12:22:15.324Z,9.57
2023-02-12T12:23:15.306Z,9.57
2023-02-12T12:24:15.323Z,9.65
2023-02-12T12:25:15.277Z,9.63
2023-02-12T12:26:15.266Z,9.66
2023-02-12T12:27:15.249Z,9.67
2023-02-12T12:28:15.292Z,9.62
2023-02-12T12:29:15.226Z,9.67
2023-02-12T12:30:15.225Z,9.67
2023-02-12T12:31:15.211Z,9.67
2023-02-12T12:32:15.227Z,9.83
2023-02-12T12:33:15.207Z,9.81
2023-02-12T12:34:15.204Z,9.84
2023-02-12T12:35:15.168Z,9.84
2023-02-12T12:36:15.162Z,9.90
2023-02-12T12:37:15.149Z,9.85
2023-02-12T12:38:15.162Z,9.85
2023-02-12T12:39:15.149Z,9.88
2023-02-12T12:40:15.148Z,9.91
2023-02-12T12:41:15.097Z,10.02
2023-02-12T12:42:15.089Z,9.98
2023-02-12T12:43:15.078Z,10.01
2023-02-12T12:44:15.095Z,9.99
2023-02-12T12:45:15.054Z,10.03
2023-02-12T12:46:15.115Z,10.01
2023-02-12T12:47:15.035Z,10.05
2023-02-12T12:48:15.065Z,10.05
2023-02-12T12:49:15.008Z,10.08
2023-02-12T12:50:15.014Z,10.10
2023-02-12T12:51:15.013Z,10.14
2023-02-12T12:52:14.981Z,10.14
2023-02-12T12:53:14.966Z,10.17
2023-02-12T12:54:14.962Z,10.14
2023-02-12T12:55:14.980Z,10.16
2023-02-12T12:56:14.972Z,10.28
2023-02-12T12:57:14.923Z,10.27
2023-02-12T12:58:14.917Z,10.27
2023-02-12T12:59:14.897Z,10.26
2023-02-12T13:00:14.979Z,10.24
2023-02-12T13:01:14.973Z,10.24
2023-02-12T13:02:14.937Z,10.27
2023-02-12T13:03:14.858Z,10.26
2023-02-12T13:04:14.875Z,10.27
2023-02-12T13:05:14.840Z,10.24
2023-02-12T13:06:14.832Z,10.28
2023-02-12T13:07:14.837Z,10.27
2023-02-12T13:08:14.801Z,10.34
2023-02-12T13:09:14.795Z,10.28
2023-02-12T13:10:14.780Z,10.34
2023-02-12T13:11:14.770Z,10.30
2023-02-12T13:12:14.784Z,10.27
2023-02-12T13:13:14.748Z,10.31
2023-02-12T13:14:14.737Z,10.39
2023-02-12T13:15:14.732Z,10.41
2023-02-12T13:16:14.798Z,10.38
2023-02-12T13:17:14.706Z,10.42